sensor_id;sensor_type;location;lat;lon;timestamp;pressure;altitude;pressure_sealevel;temperature;humidity
30856;BME280;17570;0.000;0.000;2023-05-11T00:01:20;97196.31;;;20.92;39.23
30856;BME280;17570;0.000;0.000;2023-05-11T00:03:47;97203.33;;;20.85;39.24
30856;BME280;17570;0.000;0.000;2023-05-11T00:06:15;97209.77;;;20.82;39.07
30856;BME280;17570;0.000;0.000;2023-05-11T00:08:42;97210.31;;;20.78;39.00
30856;BME280;17570;0.000;0.000;2023-05-11T00:11:10;97209.84;;;20.74;38.94
30856;BME280;17570;0.000;0.000;2023-05-11T00:13:37;97208.56;;;20.70;39.11
30856;BME280;17570;0.000;0.000;2023-05-11T00:16:05;97202.66;;;20.68;38.91
30856;BME280;17570;0.000;0.000;2023-05-11T00:18:32;97212.75;;;20.64;39.02
30856;BME280;17570;0.000;0.000;2023-05-11T00:21:00;97211.84;;;20.57;38.83
30856;BME280;17570;0.000;0.000;2023-05-11T00:23:27;97213.00;;;20.55;39.34
30856;BME280;17570;0.000;0.000;2023-05-11T00:25:55;97214.00;;;20.54;38.82
30856;BME280;17570;0.000;0.000;2023-05-11T00:28:22;97218.66;;;20.52;38.74
30856;BME280;17570;0.000;0.000;2023-05-11T00:30:54;97213.22;;;20.45;38.59
30856;BME280;17570;0.000;0.000;2023-05-11T00:33:19;97210.77;;;20.44;38.68
30856;BME280;17570;0.000;0.000;2023-05-11T00:35:46;97213.13;;;20.38;38.80
30856;BME280;17570;0.000;0.000;2023-05-11T00:38:15;97215.92;;;20.37;38.88
30856;BME280;17570;0.000;0.000;2023-05-11T00:40:42;97217.92;;;20.35;38.74
30856;BME280;17570;0.000;0.000;2023-05-11T00:43:10;97213.00;;;20.32;38.98
30856;BME280;17570;0.000;0.000;2023-05-11T00:45:37;97210.45;;;20.24;38.80
30856;BME280;17570;0.000;0.000;2023-05-11T00:48:05;97203.51;;;20.23;38.58
30856;BME280;17570;0.000;0.000;2023-05-11T00:50:34;97213.77;;;20.18;38.64
30856;BME280;17570;0.000;0.000;2023-05-11T00:53:01;97217.93;;;20.12;38.53
30856;BME280;17570;0.000;0.000;2023-05-11T00:55:29;97213.66;;;20.11;38.41
30856;BME280;17570;0.000;0.000;2023-05-11T00:57:57;97213.38;;;20.06;38.63
30856;BME280;17570;0.000;0.000;2023-05-11T01:00:24;97220.32;;;19.99;38.79
30856;BME280;17570;0.000;0.000;2023-05-11T01:02:52;97214.13;;;19.92;38.44
30856;BME280;17570;0.000;0.000;2023-05-11T01:05:20;97214.28;;;19.90;38.43
30856;BME280;17570;0.000;0.000;2023-05-11T01:07:48;97217.10;;;19.88;38.57
30856;BME280;17570;0.000;0.000;2023-05-11T01:10:20;97222.07;;;19.83;38.76
30856;BME280;17570;0.000;0.000;2023-05-11T01:15:29;97217.33;;;19.79;39.15
30856;BME280;17570;0.000;0.000;2023-05-11T01:20:22;97209.94;;;19.74;39.37
30856;BME280;17570;0.000;0.000;2023-05-11T01:25:26;97218.66;;;19.75;39.11
30856;BME280;17570;0.000;0.000;2023-05-11T01:30:25;97219.70;;;19.66;39.09
30856;BME280;17570;0.000;0.000;2023-05-11T01:32:53;97221.21;;;19.60;38.81
30856;BME280;17570;0.000;0.000;2023-05-11T01:35:22;97217.40;;;19.62;39.47
30856;BME280;17570;0.000;0.000;2023-05-11T01:37:52;97219.52;;;19.67;39.21
30856;BME280;17570;0.000;0.000;2023-05-11T01:40:20;97218.06;;;19.65;39.41
30856;BME280;17570;0.000;0.000;2023-05-11T01:42:48;97213.28;;;19.68;39.41
30856;BME280;17570;0.000;0.000;2023-05-11T01:45:16;97215.25;;;19.66;39.53
30856;BME280;17570;0.000;0.000;2023-05-11T01:47:45;97219.52;;;19.67;39.26
30856;BME280;17570;0.000;0.000;2023-05-11T01:50:14;97217.88;;;19.66;39.37
30856;BME280;17570;0.000;0.000;2023-05-11T01:52:43;97211.98;;;19.64;39.54
30856;BME280;17570;0.000;0.000;2023-05-11T01:55:11;97212.80;;;19.65;39.53
30856;BME280;17570;0.000;0.000;2023-05-11T01:57:41;97206.05;;;19.62;39.84
30856;BME280;17570;0.000;0.000;2023-05-11T02:00:10;97202.94;;;19.58;39.15
30856;BME280;17570;0.000;0.000;2023-05-11T02:02:38;97207.20;;;19.59;39.80
30856;BME280;17570;0.000;0.000;2023-05-11T02:05:06;97206.05;;;19.62;39.52
30856;BME280;17570;0.000;0.000;2023-05-11T02:07:35;97204.23;;;19.62;39.32
30856;BME280;17570;0.000;0.000;2023-05-11T02:10:04;97207.69;;;19.63;39.67
30856;BME280;17570;0.000;0.000;2023-05-11T02:12:32;97206.86;;;19.62;39.71
30856;BME280;17570;0.000;0.000;2023-05-11T02:15:02;97205.23;;;19.61;39.89
30856;BME280;17570;0.000;0.000;2023-05-11T02:17:31;97208.69;;;19.62;40.11
30856;BME280;17570;0.000;0.000;2023-05-11T02:20:00;97208.86;;;19.60;39.90
30856;BME280;17570;0.000;0.000;2023-05-11T02:22:30;97209.83;;;19.59;39.85
30856;BME280;17570;0.000;0.000;2023-05-11T02:24:58;97215.09;;;19.59;40.03
30856;BME280;17570;0.000;0.000;2023-05-11T02:27:26;97210.98;;;19.57;39.67
30856;BME280;17570;0.000;0.000;2023-05-11T02:29:54;97208.20;;;19.58;39.75
30856;BME280;17570;0.000;0.000;2023-05-11T02:32:22;97203.75;;;19.59;39.86
30856;BME280;17570;0.000;0.000;2023-05-11T02:34:59;97214.13;;;19.60;39.81
30856;BME280;17570;0.000;0.000;2023-05-11T02:37:27;97207.05;;;19.61;39.93
30856;BME280;17570;0.000;0.000;2023-05-11T02:39:58;97199.00;;;19.54;39.86
30856;BME280;17570;0.000;0.000;2023-05-11T02:42:26;97201.45;;;19.56;40.12
30856;BME280;17570;0.000;0.000;2023-05-11T02:45:06;97197.00;;;19.56;39.87
30856;BME280;17570;0.000;0.000;2023-05-11T02:47:38;97204.27;;;19.54;39.79
30856;BME280;17570;0.000;0.000;2023-05-11T02:50:05;97201.18;;;19.43;40.19
30856;BME280;17570;0.000;0.000;2023-05-11T02:52:35;97206.93;;;19.46;39.72
30856;BME280;17570;0.000;0.000;2023-05-11T02:55:04;97203.30;;;19.47;39.72
30856;BME280;17570;0.000;0.000;2023-05-11T02:57:32;97199.03;;;19.46;39.99
30856;BME280;17570;0.000;0.000;2023-05-11T03:00:02;97201.66;;;19.46;40.03
30856;BME280;17570;0.000;0.000;2023-05-11T03:02:29;97201.48;;;19.48;39.88
30856;BME280;17570;0.000;0.000;2023-05-11T03:04:57;97202.48;;;19.47;39.83
30856;BME280;17570;0.000;0.000;2023-05-11T03:07:25;97198.37;;;19.44;39.74
30856;BME280;17570;0.000;0.000;2023-05-11T03:09:52;97204.30;;;19.46;40.11
30856;BME280;17570;0.000;0.000;2023-05-11T03:12:20;97204.11;;;19.48;40.52
30856;BME280;17570;0.000;0.000;2023-05-11T03:14:48;97199.21;;;19.45;40.00
30856;BME280;17570;0.000;0.000;2023-05-11T03:17:15;97200.03;;;19.45;40.23
30856;BME280;17570;0.000;0.000;2023-05-11T03:19:43;97211.37;;;19.46;40.29
30856;BME280;17570;0.000;0.000;2023-05-11T03:22:11;97197.22;;;19.47;40.47
30856;BME280;17570;0.000;0.000;2023-05-11T03:24:39;97200.03;;;19.45;40.39
30856;BME280;17570;0.000;0.000;2023-05-11T03:27:07;97201.66;;;19.46;40.44
30856;BME280;17570;0.000;0.000;2023-05-11T03:29:35;97204.11;;;19.48;40.71
30856;BME280;17570;0.000;0.000;2023-05-11T03:32:05;97206.59;;;19.49;40.77
30856;BME280;17570;0.000;0.000;2023-05-11T03:34:34;97210.05;;;19.50;40.80
30856;BME280;17570;0.000;0.000;2023-05-11T03:37:02;97204.30;;;19.46;40.29
30856;BME280;17570;0.000;0.000;2023-05-11T03:39:31;97210.20;;;19.48;40.44
30856;BME280;17570;0.000;0.000;2023-05-11T03:42:00;97201.33;;;19.49;40.40
30856;BME280;17570;0.000;0.000;2023-05-11T03:44:30;97205.11;;;19.47;40.74
30856;BME280;17570;0.000;0.000;2023-05-11T03:46:58;97209.38;;;19.48;40.71
30856;BME280;17570;0.000;0.000;2023-05-11T03:49:28;97214.83;;;19.46;40.45
30856;BME280;17570;0.000;0.000;2023-05-11T03:51:56;97208.05;;;19.52;40.93
30856;BME280;17570;0.000;0.000;2023-05-11T03:54:24;97209.80;;;19.68;42.23
30856;BME280;17570;0.000;0.000;2023-05-11T03:56:52;97209.28;;;19.72;41.96
30856;BME280;17570;0.000;0.000;2023-05-11T03:59:19;97204.86;;;19.73;41.59
30856;BME280;17570;0.000;0.000;2023-05-11T04:01:47;97207.49;;;19.73;41.45
30856;BME280;17570;0.000;0.000;2023-05-11T04:04:19;97205.83;;;19.72;41.63
30856;BME280;17570;0.000;0.000;2023-05-11T04:06:47;97205.01;;;19.71;41.42
30856;BME280;17570;0.000;0.000;2023-05-11T04:09:16;97204.01;;;19.72;41.05
30856;BME280;17570;0.000;0.000;2023-05-11T04:11:44;97205.67;;;19.73;41.21
30856;BME280;17570;0.000;0.000;2023-05-11T04:14:11;97195.59;;;19.77;40.88
30856;BME280;17570;0.000;0.000;2023-05-11T04:16:44;97210.42;;;19.78;40.79
30856;BME280;17570;0.000;0.000;2023-05-11T04:19:08;97206.79;;;19.79;40.85
30856;BME280;17570;0.000;0.000;2023-05-11T04:21:35;97214.69;;;19.79;40.82
30856;BME280;17570;0.000;0.000;2023-05-11T04:24:05;97212.06;;;19.79;41.03
30856;BME280;17570;0.000;0.000;2023-05-11T04:26:32;97215.33;;;19.81;40.94
30856;BME280;17570;0.000;0.000;2023-05-11T04:29:00;97220.44;;;19.82;41.11
30856;BME280;17570;0.000;0.000;2023-05-11T04:31:27;97214.98;;;19.84;41.31
30856;BME280;17570;0.000;0.000;2023-05-11T04:33:56;97210.35;;;19.86;41.11
30856;BME280;17570;0.000;0.000;2023-05-11T04:36:24;97214.65;;;19.87;41.13
30856;BME280;17570;0.000;0.000;2023-05-11T04:38:51;97213.47;;;19.90;41.25
30856;BME280;17570;0.000;0.000;2023-05-11T04:41:19;97207.20;;;19.91;40.82
30856;BME280;17570;0.000;0.000;2023-05-11T04:43:48;97211.94;;;19.95;40.41
30856;BME280;17570;0.000;0.000;2023-05-11T04:46:15;97220.51;;;19.97;40.79
30856;BME280;17570;0.000;0.000;2023-05-11T04:48:43;97218.50;;;19.99;40.81
30856;BME280;17570;0.000;0.000;2023-05-11T04:51:11;97214.05;;;20.00;40.79
30856;BME280;17570;0.000;0.000;2023-05-11T04:53:40;97221.95;;;20.00;40.79
30856;BME280;17570;0.000;0.000;2023-05-11T04:56:08;97219.98;;;20.02;40.78
30856;BME280;17570;0.000;0.000;2023-05-11T04:58:36;97214.72;;;20.02;40.41
30856;BME280;17570;0.000;0.000;2023-05-11T05:01:03;97218.64;;;20.06;40.67
30856;BME280;17570;0.000;0.000;2023-05-11T05:03:31;97216.64;;;20.08;40.28
30856;BME280;17570;0.000;0.000;2023-05-11T05:05:58;97211.84;;;20.11;40.39
30856;BME280;17570;0.000;0.000;2023-05-11T05:08:26;97216.59;;;20.16;40.33
30856;BME280;17570;0.000;0.000;2023-05-11T05:10:53;97216.88;;;20.21;40.26
30856;BME280;17570;0.000;0.000;2023-05-11T05:13:21;97220.99;;;20.24;39.82
30856;BME280;17570;0.000;0.000;2023-05-11T05:15:48;97216.64;;;20.31;39.66
30856;BME280;17570;0.000;0.000;2023-05-11T05:18:16;97211.84;;;20.34;39.83
30856;BME280;17570;0.000;0.000;2023-05-11T05:20:44;97210.64;;;20.37;39.26
30856;BME280;17570;0.000;0.000;2023-05-11T05:23:13;97212.75;;;20.42;39.46
30856;BME280;17570;0.000;0.000;2023-05-11T05:25:41;97214.23;;;20.44;38.74
30856;BME280;17570;0.000;0.000;2023-05-11T05:28:08;97218.30;;;20.47;38.60
30856;BME280;17570;0.000;0.000;2023-05-11T05:30:36;97213.03;;;20.47;38.85
30856;BME280;17570;0.000;0.000;2023-05-11T05:33:03;97224.75;;;20.52;38.18
30856;BME280;17570;0.000;0.000;2023-05-11T05:35:32;97219.56;;;20.59;37.91
30856;BME280;17570;0.000;0.000;2023-05-11T05:38:00;97225.66;;;20.59;37.70
30856;BME280;17570;0.000;0.000;2023-05-11T05:40:28;97228.41;;;20.66;38.09
30856;BME280;17570;0.000;0.000;2023-05-11T05:42:56;97223.77;;;20.68;38.80
30856;BME280;17570;0.000;0.000;2023-05-11T05:47:52;97225.95;;;20.79;37.43
30856;BME280;17570;0.000;0.000;2023-05-11T05:50:21;97222.23;;;20.88;37.30
30856;BME280;17570;0.000;0.000;2023-05-11T05:52:48;97229.61;;;20.93;37.14
30856;BME280;17570;0.000;0.000;2023-05-11T05:55:16;97228.53;;;21.02;36.60
30856;BME280;17570;0.000;0.000;2023-05-11T05:57:45;97229.81;;;21.06;36.26
30856;BME280;17570;0.000;0.000;2023-05-11T06:00:14;97222.00;;;21.13;36.07
30856;BME280;17570;0.000;0.000;2023-05-11T06:02:41;97228.98;;;21.21;36.08
30856;BME280;17570;0.000;0.000;2023-05-11T06:05:10;97228.64;;;21.24;35.86
30856;BME280;17570;0.000;0.000;2023-05-11T06:07:37;97227.90;;;21.30;34.94
30856;BME280;17570;0.000;0.000;2023-05-11T06:10:05;97230.41;;;21.31;33.79
30856;BME280;17570;0.000;0.000;2023-05-11T06:12:33;97237.39;;;21.39;33.77
30856;BME280;17570;0.000;0.000;2023-05-11T06:15:01;97235.48;;;21.48;33.82
30856;BME280;17570;0.000;0.000;2023-05-11T06:17:30;97239.03;;;21.55;32.52
30856;BME280;17570;0.000;0.000;2023-05-11T06:19:57;97239.11;;;21.61;32.75
30856;BME280;17570;0.000;0.000;2023-05-11T06:22:26;97248.92;;;21.68;32.72
30856;BME280;17570;0.000;0.000;2023-05-11T06:24:54;97239.46;;;21.73;33.11
30856;BME280;17570;0.000;0.000;2023-05-11T06:27:22;97228.95;;;21.80;32.82
30856;BME280;17570;0.000;0.000;2023-05-11T06:29:50;97237.14;;;21.85;32.43
30856;BME280;17570;0.000;0.000;2023-05-11T06:32:18;97239.67;;;21.93;32.92
30856;BME280;17570;0.000;0.000;2023-05-11T06:34:46;97232.45;;;22.02;31.26
30856;BME280;17570;0.000;0.000;2023-05-11T06:37:14;97233.33;;;22.09;31.40
30856;BME280;17570;0.000;0.000;2023-05-11T06:39:47;97237.72;;;22.17;30.95
30856;BME280;17570;0.000;0.000;2023-05-11T06:42:14;97240.00;;;22.20;31.33
30856;BME280;17570;0.000;0.000;2023-05-11T06:44:42;97232.93;;;22.27;31.38
30856;BME280;17570;0.000;0.000;2023-05-11T06:47:09;97244.41;;;22.34;31.00
30856;BME280;17570;0.000;0.000;2023-05-11T06:49:37;97240.17;;;22.39;30.21
30856;BME280;17570;0.000;0.000;2023-05-11T06:52:04;97227.81;;;22.47;29.57
30856;BME280;17570;0.000;0.000;2023-05-11T06:54:32;97231.55;;;22.52;30.17
30856;BME280;17570;0.000;0.000;2023-05-11T06:57:00;97229.75;;;22.59;29.30
30856;BME280;17570;0.000;0.000;2023-05-11T07:04:25;97234.78;;;22.76;29.76
30856;BME280;17570;0.000;0.000;2023-05-11T07:06:54;97228.71;;;22.82;28.15
30856;BME280;17570;0.000;0.000;2023-05-11T07:09:22;97220.39;;;22.85;28.37
30856;BME280;17570;0.000;0.000;2023-05-11T07:11:49;97226.77;;;22.90;28.66
30856;BME280;17570;0.000;0.000;2023-05-11T07:14:18;97226.80;;;22.97;28.29
30856;BME280;17570;0.000;0.000;2023-05-11T07:16:45;97230.50;;;23.03;28.00
30856;BME280;17570;0.000;0.000;2023-05-11T07:19:13;97225.27;;;23.09;27.78
30856;BME280;17570;0.000;0.000;2023-05-11T07:21:40;97227.33;;;23.14;27.85
30856;BME280;17570;0.000;0.000;2023-05-11T07:24:08;97229.80;;;23.22;27.91
30856;BME280;17570;0.000;0.000;2023-05-11T07:26:35;97229.84;;;23.29;27.48
30856;BME280;17570;0.000;0.000;2023-05-11T07:29:06;97223.76;;;23.35;27.48
30856;BME280;17570;0.000;0.000;2023-05-11T07:31:33;97227.27;;;23.42;27.24
30856;BME280;17570;0.000;0.000;2023-05-11T07:34:01;97230.75;;;23.49;27.75
30856;BME280;17570;0.000;0.000;2023-05-11T07:36:30;97227.81;;;23.65;27.24
30856;BME280;17570;0.000;0.000;2023-05-11T07:38:57;97226.50;;;24.03;27.23
30856;BME280;17570;0.000;0.000;2023-05-11T07:41:26;97228.57;;;24.34;29.60
30856;BME280;17570;0.000;0.000;2023-05-11T07:43:54;97229.64;;;24.46;27.16
30856;BME280;17570;0.000;0.000;2023-05-11T07:46:29;97231.48;;;24.52;26.54
30856;BME280;17570;0.000;0.000;2023-05-11T07:51:30;97221.30;;;24.62;26.55
30856;BME280;17570;0.000;0.000;2023-05-11T07:56:31;97223.72;;;24.71;25.20
30856;BME280;17570;0.000;0.000;2023-05-11T08:01:41;97224.55;;;24.78;24.64
30856;BME280;17570;0.000;0.000;2023-05-11T08:04:08;97221.27;;;24.76;25.28
30856;BME280;17570;0.000;0.000;2023-05-11T08:06:36;97227.40;;;24.83;26.29
30856;BME280;17570;0.000;0.000;2023-05-11T08:09:03;97226.56;;;24.89;26.13
30856;BME280;17570;0.000;0.000;2023-05-11T08:11:31;97230.05;;;24.96;26.29
30856;BME280;17570;0.000;0.000;2023-05-11T08:21:36;97222.66;;;25.18;26.05
30856;BME280;17570;0.000;0.000;2023-05-11T08:24:04;97225.53;;;25.16;26.79
30856;BME280;17570;0.000;0.000;2023-05-11T08:26:32;97230.41;;;25.26;27.05
30856;BME280;17570;0.000;0.000;2023-05-11T08:28:59;97226.53;;;25.29;26.97
30856;BME280;17570;0.000;0.000;2023-05-11T08:33:56;97220.38;;;25.35;24.84
30856;BME280;17570;0.000;0.000;2023-05-11T08:38:57;97222.41;;;25.39;25.83
30856;BME280;17570;0.000;0.000;2023-05-11T08:41:25;97222.81;;;25.43;25.95
30856;BME280;17570;0.000;0.000;2023-05-11T08:43:52;97222.81;;;25.43;25.36
30856;BME280;17570;0.000;0.000;2023-05-11T08:51:31;97223.76;;;25.62;25.31
30856;BME280;17570;0.000;0.000;2023-05-11T09:02:01;97218.09;;;25.97;25.14
30856;BME280;17570;0.000;0.000;2023-05-11T09:04:31;97219.69;;;26.04;24.37
30856;BME280;17570;0.000;0.000;2023-05-11T09:06:59;97221.48;;;26.10;24.30
30856;BME280;17570;0.000;0.000;2023-05-11T09:11:55;97222.61;;;26.28;24.47
30856;BME280;17570;0.000;0.000;2023-05-11T09:14:23;97221.16;;;26.32;24.94
30856;BME280;17570;0.000;0.000;2023-05-11T09:16:50;97224.20;;;26.35;25.66
30856;BME280;17570;0.000;0.000;2023-05-11T09:19:17;97219.14;;;26.27;24.32
30856;BME280;17570;0.000;0.000;2023-05-11T09:21:46;97216.87;;;26.31;23.76
30856;BME280;17570;0.000;0.000;2023-05-11T09:24:13;97218.66;;;26.37;24.93
30856;BME280;17570;0.000;0.000;2023-05-11T09:26:41;97222.55;;;26.34;25.05
30856;BME280;17570;0.000;0.000;2023-05-11T09:29:08;97213.81;;;26.27;24.02
30856;BME280;17570;0.000;0.000;2023-05-11T09:31:40;97220.17;;;26.26;24.64
30856;BME280;17570;0.000;0.000;2023-05-11T09:34:09;97214.45;;;26.23;23.17
30856;BME280;17570;0.000;0.000;2023-05-11T09:36:37;97218.91;;;26.29;24.23
30856;BME280;17570;0.000;0.000;2023-05-11T09:39:05;97218.27;;;26.33;24.39
30856;BME280;17570;0.000;0.000;2023-05-11T09:41:33;97209.05;;;26.36;24.22
30856;BME280;17570;0.000;0.000;2023-05-11T09:44:04;97213.59;;;26.29;24.81
30856;BME280;17570;0.000;0.000;2023-05-11T09:46:34;97211.41;;;26.19;23.69
30856;BME280;17570;0.000;0.000;2023-05-11T09:49:02;97215.33;;;26.16;24.48
30856;BME280;17570;0.000;0.000;2023-05-11T09:51:30;97214.48;;;26.16;23.83
30856;BME280;17570;0.000;0.000;2023-05-11T09:53:58;97210.98;;;26.22;24.06
30856;BME280;17570;0.000;0.000;2023-05-11T09:59:16;97205.02;;;26.27;24.13
30856;BME280;17570;0.000;0.000;2023-05-11T10:01:43;97195.02;;;26.22;24.70
30856;BME280;17570;0.000;0.000;2023-05-11T10:04:11;97198.40;;;26.36;23.55
30856;BME280;17570;0.000;0.000;2023-05-11T10:06:42;97186.48;;;26.45;24.07
30856;BME280;17570;0.000;0.000;2023-05-11T10:09:09;97185.02;;;26.49;24.41
30856;BME280;17570;0.000;0.000;2023-05-11T10:11:37;97185.18;;;26.54;24.61
30856;BME280;17570;0.000;0.000;2023-05-11T10:14:06;97195.38;;;26.57;24.60
30856;BME280;17570;0.000;0.000;2023-05-11T10:16:36;97183.72;;;26.58;24.25
30856;BME280;17570;0.000;0.000;2023-05-11T10:19:05;97185.72;;;26.63;23.98
30856;BME280;17570;0.000;0.000;2023-05-11T10:21:38;97185.50;;;26.64;23.91
30856;BME280;17570;0.000;0.000;2023-05-11T10:24:40;97179.13;;;26.65;24.05
30856;BME280;17570;0.000;0.000;2023-05-11T10:27:09;97185.45;;;26.46;23.98
30856;BME280;17570;0.000;0.000;2023-05-11T10:32:54;97191.90;;;26.57;22.90
30856;BME280;17570;0.000;0.000;2023-05-11T10:35:21;97185.34;;;26.28;22.22
30856;BME280;17570;0.000;0.000;2023-05-11T10:37:49;97190.80;;;26.39;21.74
30856;BME280;17570;0.000;0.000;2023-05-11T10:40:24;97183.98;;;26.50;21.43
30856;BME280;17570;0.000;0.000;2023-05-11T10:51:19;97198.72;;;26.21;20.79
30856;BME280;17570;0.000;0.000;2023-05-11T10:53:56;97187.93;;;26.09;21.31
30856;BME280;17570;0.000;0.000;2023-05-11T10:56:29;97186.16;;;25.97;21.57
30856;BME280;17570;0.000;0.000;2023-05-11T10:59:15;97182.91;;;25.94;21.72
30856;BME280;17570;0.000;0.000;2023-05-11T11:01:41;97181.46;;;25.99;22.75
30856;BME280;17570;0.000;0.000;2023-05-11T11:04:10;97185.82;;;25.86;22.04
30856;BME280;17570;0.000;0.000;2023-05-11T11:06:39;97181.94;;;25.89;21.91
30856;BME280;17570;0.000;0.000;2023-05-11T11:09:07;97177.20;;;25.91;22.26
30856;BME280;17570;0.000;0.000;2023-05-11T11:11:42;97176.33;;;25.97;23.17
30856;BME280;17570;0.000;0.000;2023-05-11T11:14:07;97180.56;;;26.11;24.44
30856;BME280;17570;0.000;0.000;2023-05-11T11:16:35;97176.97;;;26.24;23.11
30856;BME280;17570;0.000;0.000;2023-05-11T11:21:49;97168.95;;;26.31;23.54
30856;BME280;17570;0.000;0.000;2023-05-11T11:27:05;97174.28;;;26.31;24.76
30856;BME280;17570;0.000;0.000;2023-05-11T11:29:38;97170.05;;;26.48;24.18
30856;BME280;17570;0.000;0.000;2023-05-11T11:34:51;97158.44;;;26.67;24.90
30856;BME280;17570;0.000;0.000;2023-05-11T11:37:18;97159.83;;;26.70;25.32
30856;BME280;17570;0.000;0.000;2023-05-11T11:39:48;97168.13;;;26.80;25.23
30856;BME280;17570;0.000;0.000;2023-05-11T11:42:17;97162.09;;;26.91;26.15
30856;BME280;17570;0.000;0.000;2023-05-11T11:44:44;97160.10;;;27.05;25.44
30856;BME280;17570;0.000;0.000;2023-05-11T11:47:18;97162.05;;;27.16;25.96
30856;BME280;17570;0.000;0.000;2023-05-11T11:49:47;97162.47;;;27.32;26.65
30856;BME280;17570;0.000;0.000;2023-05-11T11:55:01;97168.16;;;27.72;26.25
30856;BME280;17570;0.000;0.000;2023-05-11T11:59:58;97162.66;;;27.67;25.89
30856;BME280;17570;0.000;0.000;2023-05-11T12:02:26;97164.95;;;27.63;27.50
30856;BME280;17570;0.000;0.000;2023-05-11T12:04:57;97155.56;;;27.61;25.32
30856;BME280;17570;0.000;0.000;2023-05-11T12:07:25;97161.03;;;27.66;25.93
30856;BME280;17570;0.000;0.000;2023-05-11T12:09:53;97149.05;;;27.75;26.38
30856;BME280;17570;0.000;0.000;2023-05-11T12:12:22;97151.29;;;27.90;26.52
30856;BME280;17570;0.000;0.000;2023-05-11T12:14:49;97149.81;;;28.06;27.16
30856;BME280;17570;0.000;0.000;2023-05-11T12:17:25;97148.69;;;28.25;26.57
30856;BME280;17570;0.000;0.000;2023-05-11T12:19:53;97144.09;;;28.44;26.31
30856;BME280;17570;0.000;0.000;2023-05-11T12:22:21;97146.66;;;28.62;25.83
30856;BME280;17570;0.000;0.000;2023-05-11T12:24:49;97150.97;;;28.87;26.14
30856;BME280;17570;0.000;0.000;2023-05-11T12:27:18;97142.34;;;29.08;25.12
30856;BME280;17570;0.000;0.000;2023-05-11T12:29:51;97142.78;;;29.29;27.58
30856;BME280;17570;0.000;0.000;2023-05-11T12:32:24;97138.16;;;29.53;26.71
30856;BME280;17570;0.000;0.000;2023-05-11T12:34:50;97130.88;;;29.77;27.21
30856;BME280;17570;0.000;0.000;2023-05-11T12:37:13;97139.84;;;29.99;27.51
30856;BME280;17570;0.000;0.000;2023-05-11T12:39:41;97136.52;;;30.09;25.53
30856;BME280;17570;0.000;0.000;2023-05-11T12:42:09;97131.91;;;30.21;25.50
30856;BME280;17570;0.000;0.000;2023-05-11T12:44:37;97133.95;;;30.31;25.44
30856;BME280;17570;0.000;0.000;2023-05-11T12:47:06;97130.94;;;30.44;25.85
30856;BME280;17570;0.000;0.000;2023-05-11T12:49:35;97129.47;;;30.53;25.95
30856;BME280;17570;0.000;0.000;2023-05-11T12:52:03;97120.95;;;30.56;24.94
30856;BME280;17570;0.000;0.000;2023-05-11T15:07:34;97078.39;;;24.13;27.86
30856;BME280;17570;0.000;0.000;2023-05-11T15:10:02;97066.02;;;25.36;26.44
30856;BME280;17570;0.000;0.000;2023-05-11T15:12:29;97067.58;;;26.76;23.96
30856;BME280;17570;0.000;0.000;2023-05-11T15:14:57;97074.93;;;27.47;23.24
30856;BME280;17570;0.000;0.000;2023-05-11T15:17:25;97070.69;;;27.69;22.50
30856;BME280;17570;0.000;0.000;2023-05-11T15:19:52;97072.02;;;27.79;22.56
30856;BME280;17570;0.000;0.000;2023-05-11T15:22:22;97061.70;;;27.82;23.20
30856;BME280;17570;0.000;0.000;2023-05-11T15:24:50;97072.94;;;27.73;22.34
30856;BME280;17570;0.000;0.000;2023-05-11T15:27:17;97059.55;;;27.61;22.84
30856;BME280;17570;0.000;0.000;2023-05-11T15:29:45;97061.05;;;27.57;23.06
30856;BME280;17570;0.000;0.000;2023-05-11T15:32:14;97064.03;;;27.49;23.08
30856;BME280;17570;0.000;0.000;2023-05-11T15:34:43;97076.86;;;27.40;23.24
30856;BME280;17570;0.000;0.000;2023-05-11T15:37:10;97069.03;;;27.27;22.93
30856;BME280;17570;0.000;0.000;2023-05-11T15:39:39;97065.05;;;27.17;23.32
30856;BME280;17570;0.000;0.000;2023-05-11T15:42:07;97073.38;;;27.09;24.59
30856;BME280;17570;0.000;0.000;2023-05-11T15:44:34;97076.89;;;27.03;23.65
30856;BME280;17570;0.000;0.000;2023-05-11T15:47:02;97083.36;;;26.95;24.51
30856;BME280;17570;0.000;0.000;2023-05-11T15:49:31;97068.47;;;26.88;23.74
30856;BME280;17570;0.000;0.000;2023-05-11T15:51:59;97074.09;;;26.80;24.17
30856;BME280;17570;0.000;0.000;2023-05-11T15:54:27;97067.00;;;26.74;24.12
30856;BME280;17570;0.000;0.000;2023-05-11T15:56:56;97070.09;;;26.70;24.16
30856;BME280;17570;0.000;0.000;2023-05-11T15:59:26;97068.39;;;26.76;25.55
30856;BME280;17570;0.000;0.000;2023-05-11T16:01:53;97067.66;;;26.69;25.69
30856;BME280;17570;0.000;0.000;2023-05-11T16:04:22;97070.61;;;26.61;25.50
30856;BME280;17570;0.000;0.000;2023-05-11T16:06:54;97082.81;;;26.50;31.17
30856;BME280;17570;0.000;0.000;2023-05-11T16:09:21;97074.11;;;26.36;25.96
30856;BME280;17570;0.000;0.000;2023-05-11T16:11:51;97074.99;;;26.30;25.58
30856;BME280;17570;0.000;0.000;2023-05-11T16:14:19;97077.31;;;26.20;25.77
30856;BME280;17570;0.000;0.000;2023-05-11T16:16:46;97086.98;;;26.14;29.91
30856;BME280;17570;0.000;0.000;2023-05-11T16:19:17;97085.62;;;26.05;25.86
30856;BME280;17570;0.000;0.000;2023-05-11T16:21:48;97082.64;;;25.95;27.59
30856;BME280;17570;0.000;0.000;2023-05-11T16:24:15;97081.05;;;25.87;26.27
30856;BME280;17570;0.000;0.000;2023-05-11T16:26:43;97088.06;;;25.82;27.56
30856;BME280;17570;0.000;0.000;2023-05-11T16:29:10;97095.06;;;25.76;26.10
30856;BME280;17570;0.000;0.000;2023-05-11T16:31:38;97092.79;;;25.73;28.32
30856;BME280;17570;0.000;0.000;2023-05-11T16:34:05;97092.22;;;25.64;27.90
30856;BME280;17570;0.000;0.000;2023-05-11T16:36:33;97087.55;;;25.60;26.91
30856;BME280;17570;0.000;0.000;2023-05-11T16:39:01;97087.84;;;25.45;31.29
30856;BME280;17570;0.000;0.000;2023-05-11T16:41:28;97099.34;;;25.39;30.95
30856;BME280;17570;0.000;0.000;2023-05-11T16:43:57;97096.92;;;25.31;27.17
30856;BME280;17570;0.000;0.000;2023-05-11T16:46:24;97097.36;;;25.28;27.09
30856;BME280;17570;0.000;0.000;2023-05-11T16:48:51;97104.13;;;25.24;29.51
30856;BME280;17570;0.000;0.000;2023-05-11T16:51:19;97107.02;;;25.15;27.92